sensor_id;sensor_type;location;lat;lon;timestamp;temperature;humidity
16200;DHT22;8207;52.494;4.654;2022-09-20T00:01:26;12.20;99.90
16200;DHT22;8207;52.494;4.654;2022-09-20T00:03:55;12.20;99.90
16200;DHT22;8207;52.494;4.654;2022-09-20T00:06:24;12.20;99.90
16200;DHT22;8207;52.494;4.654;2022-09-20T00:08:51;12.20;99.90
16200;DHT22;8207;52.494;4.654;2022-09-20T00:11:20;12.20;99.90
16200;DHT22;8207;52.494;4.654;2022-09-20T00:13:49;12.20;99.90
16200;DHT22;8207;52.494;4.654;2022-09-20T00:16:20;12.20;99.90
16200;DHT22;8207;52.494;4.654;2022-09-20T00:18:47;12.20;99.90
16200;DHT22;8207;52.494;4.654;2022-09-20T00:21:16;12.20;99.90
16200;DHT22;8207;52.494;4.654;2022-09-20T00:23:43;12.20;99.90
16200;DHT22;8207;52.494;4.654;2022-09-20T00:26:11;12.20;99.90
16200;DHT22;8207;52.494;4.654;2022-09-20T00:28:40;12.20;99.90
16200;DHT22;8207;52.494;4.654;2022-09-20T00:31:08;12.20;99.90
16200;DHT22;8207;52.494;4.654;2022-09-20T00:33:38;12.10;99.90
16200;DHT22;8207;52.494;4.654;2022-09-20T00:36:22;12.10;99.90
16200;DHT22;8207;52.494;4.654;2022-09-20T00:38:54;12.10;99.90
16200;DHT22;8207;52.494;4.654;2022-09-20T00:41:20;12.10;99.90
16200;DHT22;8207;52.494;4.654;2022-09-20T00:43:47;12.10;99.90
16200;DHT22;8207;52.494;4.654;2022-09-20T00:46:21;12.10;99.90
16200;DHT22;8207;52.494;4.654;2022-09-20T00:48:53;12.10;99.90
16200;DHT22;8207;52.494;4.654;2022-09-20T00:51:25;12.10;99.90
16200;DHT22;8207;52.494;4.654;2022-09-20T00:53:54;12.10;99.90
16200;DHT22;8207;52.494;4.654;2022-09-20T00:56:24;12.10;99.90
16200;DHT22;8207;52.494;4.654;2022-09-20T00:58:57;12.10;99.90
16200;DHT22;8207;52.494;4.654;2022-09-20T01:01:26;12.10;99.90
16200;DHT22;8207;52.494;4.654;2022-09-20T01:03:54;12.10;99.90
16200;DHT22;8207;52.494;4.654;2022-09-20T01:06:21;12.10;99.90
16200;DHT22;8207;52.494;4.654;2022-09-20T01:08:49;12.10;99.90
16200;DHT22;8207;52.494;4.654;2022-09-20T01:11:17;12.10;99.90
16200;DHT22;8207;52.494;4.654;2022-09-20T01:13:44;12.10;99.90
16200;DHT22;8207;52.494;4.654;2022-09-20T01:16:11;12.10;99.90
16200;DHT22;8207;52.494;4.654;2022-09-20T01:18:40;12.00;99.90
16200;DHT22;8207;52.494;4.654;2022-09-20T01:21:10;12.00;99.90
16200;DHT22;8207;52.494;4.654;2022-09-20T01:23:44;11.90;99.90
16200;DHT22;8207;52.494;4.654;2022-09-20T01:26:47;11.90;99.90
16200;DHT22;8207;52.494;4.654;2022-09-20T01:29:29;11.90;99.90
16200;DHT22;8207;52.494;4.654;2022-09-20T01:32:00;11.90;99.90
16200;DHT22;8207;52.494;4.654;2022-09-20T01:34:32;11.80;99.90
16200;DHT22;8207;52.494;4.654;2022-09-20T01:37:05;11.80;99.90
16200;DHT22;8207;52.494;4.654;2022-09-20T01:39:43;11.70;99.90
16200;DHT22;8207;52.494;4.654;2022-09-20T01:42:13;11.70;99.90
16200;DHT22;8207;52.494;4.654;2022-09-20T01:44:55;11.60;99.90
16200;DHT22;8207;52.494;4.654;2022-09-20T01:47:31;11.60;99.90
16200;DHT22;8207;52.494;4.654;2022-09-20T01:50:07;11.50;99.90
16200;DHT22;8207;52.494;4.654;2022-09-20T01:53:17;11.50;99.90
16200;DHT22;8207;52.494;4.654;2022-09-20T01:56:19;11.50;99.90
16200;DHT22;8207;52.494;4.654;2022-09-20T01:59:03;11.40;99.90
16200;DHT22;8207;52.494;4.654;2022-09-20T02:10:52;11.40;99.90
16200;DHT22;8207;52.494;4.654;2022-09-20T02:13:29;11.40;99.90
16200;DHT22;8207;52.494;4.654;2022-09-20T02:16:25;11.40;99.90
16200;DHT22;8207;52.494;4.654;2022-09-20T02:19:32;11.40;99.90
16200;DHT22;8207;52.494;4.654;2022-09-20T02:22:12;11.40;99.90
16200;DHT22;8207;52.494;4.654;2022-09-20T02:24:47;11.40;99.90
16200;DHT22;8207;52.494;4.654;2022-09-20T02:27:22;11.40;99.90
16200;DHT22;8207;52.494;4.654;2022-09-20T02:30:03;11.40;99.90
16200;DHT22;8207;52.494;4.654;2022-09-20T02:32:46;11.40;99.90
16200;DHT22;8207;52.494;4.654;2022-09-20T02:35:32;11.50;99.90
16200;DHT22;8207;52.494;4.654;2022-09-20T02:38:10;11.50;99.90
16200;DHT22;8207;52.494;4.654;2022-09-20T02:41:07;11.50;99.90
16200;DHT22;8207;52.494;4.654;2022-09-20T02:43:43;11.50;99.90
16200;DHT22;8207;52.494;4.654;2022-09-20T02:46:19;11.50;99.90
16200;DHT22;8207;52.494;4.654;2022-09-20T02:48:55;11.50;99.90
16200;DHT22;8207;52.494;4.654;2022-09-20T02:51:30;11.50;99.90
16200;DHT22;8207;52.494;4.654;2022-09-20T02:54:05;11.60;99.90
16200;DHT22;8207;52.494;4.654;2022-09-20T02:56:46;11.60;99.90
16200;DHT22;8207;52.494;4.654;2022-09-20T02:59:23;11.60;99.90
16200;DHT22;8207;52.494;4.654;2022-09-20T03:02:03;11.60;99.90
16200;DHT22;8207;52.494;4.654;2022-09-20T03:04:43;11.60;99.90
16200;DHT22;8207;52.494;4.654;2022-09-20T03:07:20;11.60;99.90
16200;DHT22;8207;52.494;4.654;2022-09-20T03:09:54;11.50;99.90
16200;DHT22;8207;52.494;4.654;2022-09-20T03:12:32;11.50;99.90
16200;DHT22;8207;52.494;4.654;2022-09-20T03:15:12;11.50;99.90
16200;DHT22;8207;52.494;4.654;2022-09-20T03:17:47;11.50;99.90
16200;DHT22;8207;52.494;4.654;2022-09-20T03:20:30;11.50;99.90
16200;DHT22;8207;52.494;4.654;2022-09-20T03:23:12;11.40;99.90
16200;DHT22;8207;52.494;4.654;2022-09-20T03:25:52;11.40;99.90
16200;DHT22;8207;52.494;4.654;2022-09-20T03:31:17;11.40;99.90
16200;DHT22;8207;52.494;4.654;2022-09-20T03:33:52;11.40;99.90
16200;DHT22;8207;52.494;4.654;2022-09-20T03:36:49;11.40;99.90
16200;DHT22;8207;52.494;4.654;2022-09-20T03:42:14;11.30;99.90
16200;DHT22;8207;52.494;4.654;2022-09-20T03:48:03;11.30;99.90
16200;DHT22;8207;52.494;4.654;2022-09-20T03:50:44;11.30;99.90
16200;DHT22;8207;52.494;4.654;2022-09-20T03:56:39;11.20;99.90
16200;DHT22;8207;52.494;4.654;2022-09-20T03:59:38;11.20;99.90
16200;DHT22;8207;52.494;4.654;2022-09-20T04:02:35;11.10;99.90
16200;DHT22;8207;52.494;4.654;2022-09-20T04:05:06;11.10;99.90
16200;DHT22;8207;52.494;4.654;2022-09-20T04:07:41;11.10;99.90
16200;DHT22;8207;52.494;4.654;2022-09-20T04:10:20;11.10;99.90
16200;DHT22;8207;52.494;4.654;2022-09-20T04:13:02;11.00;99.90
16200;DHT22;8207;52.494;4.654;2022-09-20T04:15:36;11.00;99.90
16200;DHT22;8207;52.494;4.654;2022-09-20T04:18:11;11.00;99.90
16200;DHT22;8207;52.494;4.654;2022-09-20T04:20:46;11.00;99.90
16200;DHT22;8207;52.494;4.654;2022-09-20T04:23:37;11.00;99.90
16200;DHT22;8207;52.494;4.654;2022-09-20T04:26:05;10.90;99.90
16200;DHT22;8207;52.494;4.654;2022-09-20T04:28:38;10.90;99.90
16200;DHT22;8207;52.494;4.654;2022-09-20T04:31:16;10.90;99.90
16200;DHT22;8207;52.494;4.654;2022-09-20T04:33:48;10.90;99.90
16200;DHT22;8207;52.494;4.654;2022-09-20T04:36:49;10.80;99.90
16200;DHT22;8207;52.494;4.654;2022-09-20T04:39:27;10.80;99.90
16200;DHT22;8207;52.494;4.654;2022-09-20T04:42:22;10.70;99.90
16200;DHT22;8207;52.494;4.654;2022-09-20T04:45:17;10.70;99.90
16200;DHT22;8207;52.494;4.654;2022-09-20T05:00:06;10.40;99.90
16200;DHT22;8207;52.494;4.654;2022-09-20T05:06:12;10.40;99.90
16200;DHT22;8207;52.494;4.654;2022-09-20T05:08:59;10.30;99.90
16200;DHT22;8207;52.494;4.654;2022-09-20T05:12:00;10.20;99.90
16200;DHT22;8207;52.494;4.654;2022-09-20T05:15:06;10.20;99.90
16200;DHT22;8207;52.494;4.654;2022-09-20T05:17:43;10.20;99.90
16200;DHT22;8207;52.494;4.654;2022-09-20T05:26:12;10.20;99.90
16200;DHT22;8207;52.494;4.654;2022-09-20T05:28:51;10.10;99.90
16200;DHT22;8207;52.494;4.654;2022-09-20T05:31:27;10.10;99.90
16200;DHT22;8207;52.494;4.654;2022-09-20T05:34:02;10.20;99.90
16200;DHT22;8207;52.494;4.654;2022-09-20T05:36:38;10.20;99.90
16200;DHT22;8207;52.494;4.654;2022-09-20T05:39:20;10.20;99.90
16200;DHT22;8207;52.494;4.654;2022-09-20T05:41:55;10.20;99.90
16200;DHT22;8207;52.494;4.654;2022-09-20T05:44:29;10.20;99.90
16200;DHT22;8207;52.494;4.654;2022-09-20T05:47:04;10.20;99.90
16200;DHT22;8207;52.494;4.654;2022-09-20T05:49:48;10.20;99.90
16200;DHT22;8207;52.494;4.654;2022-09-20T05:52:33;10.20;99.90
16200;DHT22;8207;52.494;4.654;2022-09-20T05:55:29;10.20;99.90
16200;DHT22;8207;52.494;4.654;2022-09-20T05:58:13;10.20;99.90
16200;DHT22;8207;52.494;4.654;2022-09-20T06:00:47;10.20;99.90
16200;DHT22;8207;52.494;4.654;2022-09-20T06:03:22;10.20;99.90
16200;DHT22;8207;52.494;4.654;2022-09-20T06:05:57;10.20;99.90
16200;DHT22;8207;52.494;4.654;2022-09-20T06:08:47;10.20;99.90
16200;DHT22;8207;52.494;4.654;2022-09-20T06:11:36;10.30;99.90
16200;DHT22;8207;52.494;4.654;2022-09-20T06:14:18;10.30;99.90
16200;DHT22;8207;52.494;4.654;2022-09-20T06:16:52;10.40;99.90
16200;DHT22;8207;52.494;4.654;2022-09-20T06:19:31;10.40;99.90
16200;DHT22;8207;52.494;4.654;2022-09-20T06:22:03;10.50;99.90
16200;DHT22;8207;52.494;4.654;2022-09-20T06:24:37;10.50;99.90
16200;DHT22;8207;52.494;4.654;2022-09-20T06:27:12;10.50;99.90
16200;DHT22;8207;52.494;4.654;2022-09-20T06:29:43;10.60;99.90
16200;DHT22;8207;52.494;4.654;2022-09-20T06:32:16;10.60;99.90
16200;DHT22;8207;52.494;4.654;2022-09-20T06:34:43;10.70;99.90
16200;DHT22;8207;52.494;4.654;2022-09-20T06:37:27;10.70;99.90
16200;DHT22;8207;52.494;4.654;2022-09-20T06:40:28;10.80;99.90
16200;DHT22;8207;52.494;4.654;2022-09-20T06:43:16;10.90;99.90
16200;DHT22;8207;52.494;4.654;2022-09-20T06:45:44;11.00;99.90
16200;DHT22;8207;52.494;4.654;2022-09-20T06:48:11;11.10;99.90
16200;DHT22;8207;52.494;4.654;2022-09-20T06:50:40;11.20;99.90
16200;DHT22;8207;52.494;4.654;2022-09-20T06:53:13;11.30;99.90
16200;DHT22;8207;52.494;4.654;2022-09-20T06:55:41;11.40;99.90
16200;DHT22;8207;52.494;4.654;2022-09-20T06:58:09;11.40;99.90
16200;DHT22;8207;52.494;4.654;2022-09-20T07:00:37;11.50;99.90
16200;DHT22;8207;52.494;4.654;2022-09-20T07:03:05;11.60;99.90
16200;DHT22;8207;52.494;4.654;2022-09-20T07:05:33;11.60;99.90
16200;DHT22;8207;52.494;4.654;2022-09-20T07:08:01;11.70;99.90
16200;DHT22;8207;52.494;4.654;2022-09-20T07:10:28;11.80;99.90
16200;DHT22;8207;52.494;4.654;2022-09-20T07:12:55;11.90;99.90
16200;DHT22;8207;52.494;4.654;2022-09-20T07:15:24;12.00;99.90
16200;DHT22;8207;52.494;4.654;2022-09-20T07:17:52;12.00;99.90
16200;DHT22;8207;52.494;4.654;2022-09-20T07:20:19;12.10;99.90
16200;DHT22;8207;52.494;4.654;2022-09-20T07:22:46;12.20;99.90
16200;DHT22;8207;52.494;4.654;2022-09-20T07:25:13;12.30;99.90
16200;DHT22;8207;52.494;4.654;2022-09-20T07:27:42;12.30;99.90
16200;DHT22;8207;52.494;4.654;2022-09-20T07:30:12;12.40;99.90
16200;DHT22;8207;52.494;4.654;2022-09-20T07:32:39;12.50;99.90
16200;DHT22;8207;52.494;4.654;2022-09-20T07:35:09;12.60;99.90
16200;DHT22;8207;52.494;4.654;2022-09-20T07:37:37;12.70;99.90
16200;DHT22;8207;52.494;4.654;2022-09-20T07:40:07;12.70;99.90
16200;DHT22;8207;52.494;4.654;2022-09-20T07:42:35;12.80;99.90
16200;DHT22;8207;52.494;4.654;2022-09-20T07:45:02;12.90;99.90
16200;DHT22;8207;52.494;4.654;2022-09-20T07:47:29;12.90;99.90
16200;DHT22;8207;52.494;4.654;2022-09-20T07:49:57;12.90;99.90
16200;DHT22;8207;52.494;4.654;2022-09-20T07:52:25;13.00;99.90
16200;DHT22;8207;52.494;4.654;2022-09-20T07:54:52;13.10;99.90
16200;DHT22;8207;52.494;4.654;2022-09-20T07:57:19;13.10;99.90
16200;DHT22;8207;52.494;4.654;2022-09-20T07:59:46;13.20;99.90
16200;DHT22;8207;52.494;4.654;2022-09-20T08:02:13;13.20;99.90
16200;DHT22;8207;52.494;4.654;2022-09-20T08:04:41;13.20;99.90
16200;DHT22;8207;52.494;4.654;2022-09-20T08:07:09;13.30;99.90
16200;DHT22;8207;52.494;4.654;2022-09-20T08:09:38;13.30;99.90
16200;DHT22;8207;52.494;4.654;2022-09-20T08:12:06;13.30;99.90
16200;DHT22;8207;52.494;4.654;2022-09-20T08:14:33;13.30;99.90
16200;DHT22;8207;52.494;4.654;2022-09-20T08:17:00;13.30;99.90
16200;DHT22;8207;52.494;4.654;2022-09-20T08:19:27;13.30;99.90
16200;DHT22;8207;52.494;4.654;2022-09-20T08:21:55;13.30;99.90
16200;DHT22;8207;52.494;4.654;2022-09-20T08:24:21;13.40;99.90
16200;DHT22;8207;52.494;4.654;2022-09-20T08:26:52;13.40;99.90
16200;DHT22;8207;52.494;4.654;2022-09-20T08:29:19;13.40;99.90
16200;DHT22;8207;52.494;4.654;2022-09-20T08:31:46;13.30;99.90
16200;DHT22;8207;52.494;4.654;2022-09-20T08:34:13;13.30;99.90
16200;DHT22;8207;52.494;4.654;2022-09-20T08:36:42;13.30;99.90
16200;DHT22;8207;52.494;4.654;2022-09-20T08:39:11;13.20;99.90
16200;DHT22;8207;52.494;4.654;2022-09-20T08:41:42;13.20;99.90
16200;DHT22;8207;52.494;4.654;2022-09-20T08:44:15;13.20;99.90
16200;DHT22;8207;52.494;4.654;2022-09-20T08:46:47;13.20;99.90
16200;DHT22;8207;52.494;4.654;2022-09-20T08:49:21;13.20;99.90
16200;DHT22;8207;52.494;4.654;2022-09-20T08:51:51;13.30;99.90
16200;DHT22;8207;52.494;4.654;2022-09-20T08:54:19;13.30;99.90
16200;DHT22;8207;52.494;4.654;2022-09-20T08:56:47;13.30;99.90
16200;DHT22;8207;52.494;4.654;2022-09-20T08:59:19;13.40;99.90
16200;DHT22;8207;52.494;4.654;2022-09-20T09:01:46;13.40;99.90
16200;DHT22;8207;52.494;4.654;2022-09-20T09:04:16;13.40;99.90
16200;DHT22;8207;52.494;4.654;2022-09-20T09:06:44;13.50;99.90
16200;DHT22;8207;52.494;4.654;2022-09-20T09:09:16;13.60;99.90
16200;DHT22;8207;52.494;4.654;2022-09-20T09:11:44;13.70;99.90
16200;DHT22;8207;52.494;4.654;2022-09-20T09:14:21;13.70;99.90
16200;DHT22;8207;52.494;4.654;2022-09-20T09:17:20;13.80;99.90
16200;DHT22;8207;52.494;4.654;2022-09-20T09:19:48;14.00;99.90
16200;DHT22;8207;52.494;4.654;2022-09-20T09:22:22;14.20;99.90
16200;DHT22;8207;52.494;4.654;2022-09-20T09:25:12;14.40;99.90
16200;DHT22;8207;52.494;4.654;2022-09-20T09:27:53;14.50;99.90
16200;DHT22;8207;52.494;4.654;2022-09-20T09:30:24;14.60;99.90
16200;DHT22;8207;52.494;4.654;2022-09-20T09:32:52;14.70;99.90
16200;DHT22;8207;52.494;4.654;2022-09-20T09:35:28;14.80;99.90
16200;DHT22;8207;52.494;4.654;2022-09-20T09:37:57;14.90;99.90
16200;DHT22;8207;52.494;4.654;2022-09-20T09:40:25;15.10;99.90
16200;DHT22;8207;52.494;4.654;2022-09-20T09:42:54;15.10;99.90
16200;DHT22;8207;52.494;4.654;2022-09-20T09:45:27;15.10;99.90
16200;DHT22;8207;52.494;4.654;2022-09-20T09:47:56;15.20;99.90
16200;DHT22;8207;52.494;4.654;2022-09-20T09:50:26;15.20;99.90
16200;DHT22;8207;52.494;4.654;2022-09-20T09:53:02;15.20;99.90
16200;DHT22;8207;52.494;4.654;2022-09-20T09:55:53;15.30;99.90
16200;DHT22;8207;52.494;4.654;2022-09-20T09:58:30;15.40;99.90
16200;DHT22;8207;52.494;4.654;2022-09-20T10:01:05;15.50;99.90
16200;DHT22;8207;52.494;4.654;2022-09-20T10:03:50;15.60;99.90
16200;DHT22;8207;52.494;4.654;2022-09-20T10:06:23;15.70;99.90
16200;DHT22;8207;52.494;4.654;2022-09-20T10:09:05;15.80;99.90
16200;DHT22;8207;52.494;4.654;2022-09-20T10:11:45;15.90;99.90
16200;DHT22;8207;52.494;4.654;2022-09-20T10:14:25;16.00;99.90
16200;DHT22;8207;52.494;4.654;2022-09-20T10:17:11;16.10;99.90
16200;DHT22;8207;52.494;4.654;2022-09-20T10:19:53;16.10;99.90
16200;DHT22;8207;52.494;4.654;2022-09-20T10:22:26;16.10;99.90
16200;DHT22;8207;52.494;4.654;2022-09-20T10:24:58;16.00;99.90
16200;DHT22;8207;52.494;4.654;2022-09-20T10:27:36;16.00;99.90
16200;DHT22;8207;52.494;4.654;2022-09-20T10:30:09;16.00;99.90
16200;DHT22;8207;52.494;4.654;2022-09-20T10:32:57;16.00;94.90
16200;DHT22;8207;52.494;4.654;2022-09-20T10:35:29;16.00;91.90
16200;DHT22;8207;52.494;4.654;2022-09-20T10:38:12;16.00;78.20
16200;DHT22;8207;52.494;4.654;2022-09-20T10:40:47;15.90;47.20
16200;DHT22;8207;52.494;4.654;2022-09-20T10:43:45;15.90;1.00
16200;DHT22;8207;52.494;4.654;2022-09-20T10:46:23;15.80;1.00
16200;DHT22;8207;52.494;4.654;2022-09-20T10:49:02;15.70;99.90
16200;DHT22;8207;52.494;4.654;2022-09-20T10:51:38;15.70;1.00
16200;DHT22;8207;52.494;4.654;2022-09-20T10:54:13;15.70;99.90
16200;DHT22;8207;52.494;4.654;2022-09-20T10:56:47;15.70;1.00
16200;DHT22;8207;52.494;4.654;2022-09-20T10:59:33;15.80;99.90
16200;DHT22;8207;52.494;4.654;2022-09-20T11:02:18;16.00;99.90
16200;DHT22;8207;52.494;4.654;2022-09-20T11:05:25;16.20;99.90
16200;DHT22;8207;52.494;4.654;2022-09-20T11:08:02;16.30;99.90
16200;DHT22;8207;52.494;4.654;2022-09-20T11:10:34;16.50;1.00
16200;DHT22;8207;52.494;4.654;2022-09-20T11:13:05;16.40;99.90
16200;DHT22;8207;52.494;4.654;2022-09-20T11:15:37;16.50;1.00
16200;DHT22;8207;52.494;4.654;2022-09-20T11:18:11;16.50;1.00
16200;DHT22;8207;52.494;4.654;2022-09-20T11:20:54;16.50;1.00
16200;DHT22;8207;52.494;4.654;2022-09-20T11:23:26;16.50;36.80
16200;DHT22;8207;52.494;4.654;2022-09-20T11:25:56;16.40;1.00
16200;DHT22;8207;52.494;4.654;2022-09-20T11:28:26;16.30;99.90
16200;DHT22;8207;52.494;4.654;2022-09-20T11:30:59;16.20;1.00
16200;DHT22;8207;52.494;4.654;2022-09-20T11:33:30;16.20;1.00
16200;DHT22;8207;52.494;4.654;2022-09-20T11:36:01;16.20;1.00
16200;DHT22;8207;52.494;4.654;2022-09-20T11:38:33;16.20;1.00
16200;DHT22;8207;52.494;4.654;2022-09-20T11:41:04;16.20;1.00
16200;DHT22;8207;52.494;4.654;2022-09-20T11:43:34;16.30;1.00
16200;DHT22;8207;52.494;4.654;2022-09-20T11:46:06;16.30;1.00
16200;DHT22;8207;52.494;4.654;2022-09-20T11:48:40;16.40;1.00
16200;DHT22;8207;52.494;4.654;2022-09-20T11:51:24;16.30;99.90
16200;DHT22;8207;52.494;4.654;2022-09-20T11:56:54;16.30;1.00
16200;DHT22;8207;52.494;4.654;2022-09-20T11:59:28;16.30;81.00
16200;DHT22;8207;52.494;4.654;2022-09-20T12:01:57;16.30;1.00
16200;DHT22;8207;52.494;4.654;2022-09-20T12:04:28;16.40;65.10
16200;DHT22;8207;52.494;4.654;2022-09-20T12:07:01;16.50;48.90
16200;DHT22;8207;52.494;4.654;2022-09-20T12:09:31;16.50;1.00
16200;DHT22;8207;52.494;4.654;2022-09-20T12:12:13;16.60;1.00
16200;DHT22;8207;52.494;4.654;2022-09-20T12:14:41;16.60;1.00
16200;DHT22;8207;52.494;4.654;2022-09-20T12:20:57;16.60;99.90
16200;DHT22;8207;52.494;4.654;2022-09-20T12:26:39;16.50;99.90
16200;DHT22;8207;52.494;4.654;2022-09-20T12:32:46;16.70;1.00
16200;DHT22;8207;52.494;4.654;2022-09-20T12:38:27;16.90;1.00
16200;DHT22;8207;52.494;4.654;2022-09-20T12:41:02;17.00;99.90
16200;DHT22;8207;52.494;4.654;2022-09-20T12:43:31;17.10;1.00
16200;DHT22;8207;52.494;4.654;2022-09-20T12:46:00;17.30;99.90
16200;DHT22;8207;52.494;4.654;2022-09-20T12:48:33;17.50;1.00
16200;DHT22;8207;52.494;4.654;2022-09-20T12:51:03;17.70;1.00
16200;DHT22;8207;52.494;4.654;2022-09-20T12:53:59;17.70;1.00
16200;DHT22;8207;52.494;4.654;2022-09-20T12:56:28;17.70;99.90
16200;DHT22;8207;52.494;4.654;2022-09-20T12:58:56;17.70;99.90
16200;DHT22;8207;52.494;4.654;2022-09-20T13:01:34;17.70;86.90
16200;DHT22;8207;52.494;4.654;2022-09-20T13:07:43;17.60;1.00
16200;DHT22;8207;52.494;4.654;2022-09-20T13:10:24;17.60;99.90
16200;DHT22;8207;52.494;4.654;2022-09-20T13:12:59;17.60;1.00
16200;DHT22;8207;52.494;4.654;2022-09-20T13:15:26;17.60;99.90
16200;DHT22;8207;52.494;4.654;2022-09-20T13:17:55;17.70;1.00
16200;DHT22;8207;52.494;4.654;2022-09-20T13:20:27;17.70;99.90
16200;DHT22;8207;52.494;4.654;2022-09-20T13:22:56;17.70;1.00
16200;DHT22;8207;52.494;4.654;2022-09-20T13:25:25;17.70;99.90
16200;DHT22;8207;52.494;4.654;2022-09-20T13:27:59;17.60;1.00
16200;DHT22;8207;52.494;4.654;2022-09-20T13:30:28;17.50;1.00
16200;DHT22;8207;52.494;4.654;2022-09-20T13:33:14;17.40;99.90
16200;DHT22;8207;52.494;4.654;2022-09-20T13:35:42;17.50;1.00
16200;DHT22;8207;52.494;4.654;2022-09-20T13:38:12;17.70;99.90
16200;DHT22;8207;52.494;4.654;2022-09-20T13:40:41;17.80;1.00
16200;DHT22;8207;52.494;4.654;2022-09-20T13:43:19;18.00;99.90
16200;DHT22;8207;52.494;4.654;2022-09-20T13:45:51;18.00;1.00
16200;DHT22;8207;52.494;4.654;2022-09-20T13:48:23;18.00;99.90
16200;DHT22;8207;52.494;4.654;2022-09-20T13:50:50;18.10;1.00
16200;DHT22;8207;52.494;4.654;2022-09-20T13:53:17;18.10;1.00
16200;DHT22;8207;52.494;4.654;2022-09-20T13:55:44;18.10;1.00
16200;DHT22;8207;52.494;4.654;2022-09-20T13:58:20;18.10;99.90
16200;DHT22;8207;52.494;4.654;2022-09-20T14:00:50;18.10;1.00
16200;DHT22;8207;52.494;4.654;2022-09-20T14:03:19;18.10;1.00
16200;DHT22;8207;52.494;4.654;2022-09-20T14:05:48;18.10;1.00
16200;DHT22;8207;52.494;4.654;2022-09-20T14:08:21;18.20;99.90
16200;DHT22;8207;52.494;4.654;2022-09-20T14:10:49;18.10;1.00
16200;DHT22;8207;52.494;4.654;2022-09-20T14:13:32;18.00;1.00
16200;DHT22;8207;52.494;4.654;2022-09-20T14:16:01;18.00;1.00
16200;DHT22;8207;52.494;4.654;2022-09-20T14:18:28;18.00;1.00
16200;DHT22;8207;52.494;4.654;2022-09-20T14:20:55;18.00;1.00
16200;DHT22;8207;52.494;4.654;2022-09-20T14:23:24;17.90;1.00
16200;DHT22;8207;52.494;4.654;2022-09-20T14:26:21;17.90;1.00
16200;DHT22;8207;52.494;4.654;2022-09-20T14:28:49;17.90;1.00
16200;DHT22;8207;52.494;4.654;2022-09-20T14:31:19;17.80;1.00
16200;DHT22;8207;52.494;4.654;2022-09-20T14:33:49;17.70;1.00
16200;DHT22;8207;52.494;4.654;2022-09-20T14:36:19;17.60;1.00
16200;DHT22;8207;52.494;4.654;2022-09-20T14:38:48;17.50;1.00
16200;DHT22;8207;52.494;4.654;2022-09-20T14:41:24;17.50;1.00
16200;DHT22;8207;52.494;4.654;2022-09-20T14:43:56;17.40;1.00
16200;DHT22;8207;52.494;4.654;2022-09-20T14:46:30;17.40;1.00
16200;DHT22;8207;52.494;4.654;2022-09-20T14:49:30;17.20;1.00
16200;DHT22;8207;52.494;4.654;2022-09-20T14:52:35;17.20;1.00
16200;DHT22;8207;52.494;4.654;2022-09-20T14:55:17;17.20;1.00
16200;DHT22;8207;52.494;4.654;2022-09-20T14:57:46;17.20;4.10
16200;DHT22;8207;52.494;4.654;2022-09-20T15:00:16;17.10;1.00
16200;DHT22;8207;52.494;4.654;2022-09-20T15:02:45;17.10;1.00
16200;DHT22;8207;52.494;4.654;2022-09-20T15:05:22;17.00;1.00
16200;DHT22;8207;52.494;4.654;2022-09-20T15:07:51;17.00;99.90
16200;DHT22;8207;52.494;4.654;2022-09-20T15:10:18;17.00;99.90
16200;DHT22;8207;52.494;4.654;2022-09-20T15:12:45;16.90;99.90
16200;DHT22;8207;52.494;4.654;2022-09-20T15:15:13;16.90;99.90
16200;DHT22;8207;52.494;4.654;2022-09-20T15:17:43;16.80;99.90
16200;DHT22;8207;52.494;4.654;2022-09-20T15:20:16;16.80;1.00
16200;DHT22;8207;52.494;4.654;2022-09-20T15:22:43;16.70;1.00
16200;DHT22;8207;52.494;4.654;2022-09-20T15:25:15;16.70;1.00
16200;DHT22;8207;52.494;4.654;2022-09-20T15:27:43;16.70;99.90
16200;DHT22;8207;52.494;4.654;2022-09-20T15:30:12;16.60;99.90
16200;DHT22;8207;52.494;4.654;2022-09-20T15:32:42;16.50;1.00
16200;DHT22;8207;52.494;4.654;2022-09-20T15:35:09;16.50;1.00
16200;DHT22;8207;52.494;4.654;2022-09-20T15:37:36;16.40;1.00
16200;DHT22;8207;52.494;4.654;2022-09-20T15:40:04;16.40;1.00
16200;DHT22;8207;52.494;4.654;2022-09-20T15:42:32;16.40;1.00
16200;DHT22;8207;52.494;4.654;2022-09-20T15:45:04;16.30;1.00
16200;DHT22;8207;52.494;4.654;2022-09-20T15:47:31;16.40;1.00
16200;DHT22;8207;52.494;4.654;2022-09-20T15:49:59;16.40;1.00
16200;DHT22;8207;52.494;4.654;2022-09-20T15:52:26;16.40;99.90
16200;DHT22;8207;52.494;4.654;2022-09-20T15:54:58;16.30;1.00
16200;DHT22;8207;52.494;4.654;2022-09-20T15:57:28;16.30;1.00
16200;DHT22;8207;52.494;4.654;2022-09-20T15:59:55;16.30;99.90
16200;DHT22;8207;52.494;4.654;2022-09-20T16:02:23;16.30;99.90
16200;DHT22;8207;52.494;4.654;2022-09-20T16:04:50;16.30;99.90
16200;DHT22;8207;52.494;4.654;2022-09-20T16:07:21;16.30;99.90
16200;DHT22;8207;52.494;4.654;2022-09-20T16:09:52;16.20;99.90
16200;DHT22;8207;52.494;4.654;2022-09-20T16:12:20;16.20;1.00
16200;DHT22;8207;52.494;4.654;2022-09-20T16:14:47;16.10;7.10
16200;DHT22;8207;52.494;4.654;2022-09-20T16:17:14;16.10;99.90
16200;DHT22;8207;52.494;4.654;2022-09-20T16:19:41;16.00;99.90
16200;DHT22;8207;52.494;4.654;2022-09-20T16:22:08;15.90;99.90
16200;DHT22;8207;52.494;4.654;2022-09-20T16:24:38;15.90;1.00
16200;DHT22;8207;52.494;4.654;2022-09-20T16:27:06;16.00;1.00
16200;DHT22;8207;52.494;4.654;2022-09-20T16:29:34;15.90;69.70
16200;DHT22;8207;52.494;4.654;2022-09-20T16:32:01;15.90;1.00
16200;DHT22;8207;52.494;4.654;2022-09-20T16:34:30;15.80;1.00
16200;DHT22;8207;52.494;4.654;2022-09-20T16:36:59;15.70;1.00
16200;DHT22;8207;52.494;4.654;2022-09-20T16:39:27;15.80;1.00
16200;DHT22;8207;52.494;4.654;2022-09-20T16:41:57;15.70;1.00
16200;DHT22;8207;52.494;4.654;2022-09-20T16:44:28;15.70;1.00
16200;DHT22;8207;52.494;4.654;2022-09-20T16:46:55;15.60;99.90
16200;DHT22;8207;52.494;4.654;2022-09-20T16:49:21;15.60;1.00
16200;DHT22;8207;52.494;4.654;2022-09-20T16:51:51;15.50;99.90
16200;DHT22;8207;52.494;4.654;2022-09-20T16:54:18;15.50;99.90
16200;DHT22;8207;52.494;4.654;2022-09-20T16:56:46;15.50;99.90
16200;DHT22;8207;52.494;4.654;2022-09-20T16:59:17;15.40;1.00
16200;DHT22;8207;52.494;4.654;2022-09-20T17:01:46;15.30;1.00
16200;DHT22;8207;52.494;4.654;2022-09-20T17:04:13;15.30;1.00
16200;DHT22;8207;52.494;4.654;2022-09-20T17:06:43;15.30;1.00
16200;DHT22;8207;52.494;4.654;2022-09-20T17:09:10;15.20;1.00
16200;DHT22;8207;52.494;4.654;2022-09-20T17:11:40;15.20;1.00
16200;DHT22;8207;52.494;4.654;2022-09-20T17:14:10;15.20;1.00
16200;DHT22;8207;52.494;4.654;2022-09-20T17:16:40;15.20;1.00
16200;DHT22;8207;52.494;4.654;2022-09-20T17:19:09;15.20;1.00
16200;DHT22;8207;52.494;4.654;2022-09-20T17:21:37;15.20;1.00
16200;DHT22;8207;52.494;4.654;2022-09-20T17:24:06;15.20;17.00
16200;DHT22;8207;52.494;4.654;2022-09-20T17:26:34;15.10;21.90
16200;DHT22;8207;52.494;4.654;2022-09-20T17:29:04;15.10;42.80
16200;DHT22;8207;52.494;4.654;2022-09-20T17:31:32;15.10;31.20
16200;DHT22;8207;52.494;4.654;2022-09-20T17:34:02;15.00;23.40
16200;DHT22;8207;52.494;4.654;2022-09-20T17:36:33;15.00;14.80